createdAt,value
2018-05-27T00:00:35.672Z,0
2018-05-27T00:01:16.223Z,0
2018-05-27T00:01:56.662Z,0
2018-05-27T00:02:37.193Z,0
2018-05-27T00:03:17.696Z,0
2018-05-27T00:03:58.205Z,0
2018-05-27T00:04:38.658Z,0
2018-05-27T00:05:19.132Z,0
2018-05-27T00:05:59.693Z,0
2018-05-27T00:06:40.248Z,0
2018-05-27T00:07:20.800Z,0
2018-05-27T00:08:01.264Z,0
2018-05-27T00:08:41.817Z,0
2018-05-27T00:09:22.247Z,0
2018-05-27T00:10:02.805Z,0
2018-05-27T00:10:43.245Z,0
2018-05-27T00:11:23.752Z,0
2018-05-27T00:12:04.237Z,0
2018-05-27T00:12:44.721Z,0
2018-05-27T00:13:25.255Z,0
2018-05-27T00:14:05.721Z,0
2018-05-27T00:14:46.251Z,0
2018-05-27T00:15:26.773Z,0
2018-05-27T00:16:07.234Z,0
2018-05-27T00:16:47.741Z,0
2018-05-27T00:17:28.305Z,0
2018-05-27T00:18:08.827Z,0
2018-05-27T00:18:49.535Z,0
2018-05-27T00:19:30.120Z,0
2018-05-27T00:20:10.612Z,0
2018-05-27T00:20:51.091Z,0
2018-05-27T00:21:31.590Z,0
2018-05-27T00:22:12.087Z,0
2018-05-27T00:22:52.630Z,0
2018-05-27T00:23:33.094Z,0
2018-05-27T00:24:13.576Z,0
2018-05-27T00:24:54.076Z,0
2018-05-27T00:25:34.607Z,0
2018-05-27T00:26:15.106Z,0
2018-05-27T00:26:55.607Z,0
2018-05-27T00:27:36.091Z,0
2018-05-27T00:28:16.600Z,0
2018-05-27T00:28:57.091Z,0
2018-05-27T00:29:37.625Z,0
2018-05-27T00:30:18.078Z,0
2018-05-27T00:30:58.617Z,0
2018-05-27T00:31:39.079Z,0
2018-05-27T00:32:19.602Z,0
2018-05-27T00:33:00.065Z,0
2018-05-27T00:33:40.587Z,0
2018-05-27T00:34:21.074Z,0
2018-05-27T00:35:01.609Z,0
2018-05-27T00:35:42.071Z,0
2018-05-27T00:36:22.608Z,0
2018-05-27T00:37:03.057Z,0
2018-05-27T00:37:43.594Z,0
2018-05-27T00:38:24.013Z,0
2018-05-27T00:39:04.580Z,0
2018-05-27T00:39:45.180Z,0
2018-05-27T00:40:25.632Z,0
2018-05-27T00:41:06.144Z,0
2018-05-27T00:41:46.637Z,0
2018-05-27T00:42:27.086Z,0
2018-05-27T00:43:07.654Z,0
2018-05-27T00:43:48.128Z,0
2018-05-27T00:44:28.617Z,0
2018-05-27T00:45:09.113Z,0
2018-05-27T00:45:49.602Z,0
2018-05-27T00:46:30.094Z,0
2018-05-27T00:47:10.609Z,0
2018-05-27T00:47:51.094Z,0
2018-05-27T00:48:31.549Z,0
2018-05-27T00:49:12.058Z,0
2018-05-27T00:49:52.604Z,0
2018-05-27T00:50:33.054Z,0
2018-05-27T00:51:13.569Z,0
2018-05-27T00:51:54.058Z,0
2018-05-27T00:52:34.577Z,0
2018-05-27T00:53:15.058Z,0
2018-05-27T00:53:55.546Z,0
2018-05-27T00:54:36.097Z,0
2018-05-27T00:55:16.606Z,0
2018-05-27T00:55:57.091Z,0
2018-05-27T00:56:37.594Z,0
2018-05-27T00:57:18.097Z,0
2018-05-27T00:57:58.589Z,0
2018-05-27T00:58:39.052Z,0
2018-05-27T00:59:19.530Z,0
2018-05-27T01:00:00.030Z,0
2018-05-27T01:00:40.559Z,0
2018-05-27T01:01:20.978Z,0
2018-05-27T01:02:01.505Z,0
2018-05-27T01:02:42.032Z,0
2018-05-27T01:03:22.531Z,0
2018-05-27T01:04:03.104Z,0
2018-05-27T01:04:43.584Z,0
2018-05-27T01:05:24.099Z,0
2018-05-27T01:06:04.579Z,0
2018-05-27T01:06:45.121Z,0
2018-05-27T01:07:25.590Z,0
2018-05-27T01:08:06.103Z,0
2018-05-27T01:08:46.594Z,0
2018-05-27T01:09:27.124Z,0
2018-05-27T01:10:07.550Z,0
2018-05-27T01:10:48.234Z,0
2018-05-27T01:11:28.781Z,0
2018-05-27T01:12:09.257Z,0
2018-05-27T01:12:49.830Z,0
2018-05-27T01:13:30.398Z,0
2018-05-27T01:14:10.836Z,0
2018-05-27T01:14:51.357Z,0
2018-05-27T01:15:31.903Z,0
2018-05-27T01:16:12.365Z,0
2018-05-27T01:16:52.862Z,0
2018-05-27T01:17:33.393Z,0
2018-05-27T01:18:13.898Z,0
2018-05-27T01:18:54.352Z,0
2018-05-27T01:19:34.842Z,0
2018-05-27T01:20:15.386Z,0
2018-05-27T01:20:55.859Z,0
2018-05-27T01:21:36.321Z,0
2018-05-27T01:22:16.825Z,0
2018-05-27T01:22:57.353Z,0
2018-05-27T01:23:37.883Z,0
2018-05-27T01:24:18.381Z,0
2018-05-27T01:24:58.845Z,0
2018-05-27T01:25:39.321Z,0
2018-05-27T01:26:19.788Z,0
2018-05-27T01:27:00.341Z,0
2018-05-27T01:27:40.839Z,0
2018-05-27T01:28:21.383Z,0
2018-05-27T01:29:01.913Z,0
2018-05-27T01:29:42.389Z,0
2018-05-27T01:30:22.897Z,0
2018-05-27T01:31:03.435Z,0
2018-05-27T01:31:43.939Z,0
2018-05-27T01:32:24.397Z,0
2018-05-27T01:33:04.892Z,0
2018-05-27T01:33:45.434Z,0
2018-05-27T01:34:25.919Z,0
2018-05-27T01:35:06.393Z,0
2018-05-27T01:35:46.905Z,0
2018-05-27T01:36:27.382Z,0
2018-05-27T01:37:07.890Z,0
2018-05-27T01:37:48.386Z,0
2018-05-27T01:38:28.912Z,0
2018-05-27T01:39:09.412Z,0
2018-05-27T01:39:49.916Z,0
2018-05-27T01:40:30.413Z,0
2018-05-27T01:41:11.049Z,0
2018-05-27T01:41:51.555Z,0
2018-05-27T01:42:32.048Z,0
2018-05-27T01:43:12.570Z,0
2018-05-27T01:43:53.315Z,0
2018-05-27T01:44:33.549Z,0
2018-05-27T01:45:14.047Z,0
2018-05-27T01:45:54.590Z,0
2018-05-27T01:46:35.034Z,0
2018-05-27T01:47:15.578Z,0
2018-05-27T01:47:56.052Z,0
2018-05-27T01:48:36.547Z,0
2018-05-27T01:49:17.045Z,0
2018-05-27T01:49:57.530Z,0
2018-05-27T01:50:38.012Z,0
2018-05-27T01:51:18.502Z,0
2018-05-27T01:51:59.015Z,0
2018-05-27T01:52:39.523Z,0
2018-05-27T01:53:20.011Z,0
2018-05-27T01:54:00.552Z,0
2018-05-27T01:54:41.028Z,0
2018-05-27T01:55:21.549Z,0
2018-05-27T01:56:02.013Z,0
2018-05-27T01:56:42.496Z,0
2018-05-27T01:57:23.020Z,0
2018-05-27T01:58:03.502Z,0
2018-05-27T01:58:44.016Z,0
2018-05-27T01:59:24.541Z,0
2018-05-27T02:00:05.039Z,0
2018-05-27T02:00:45.549Z,0
2018-05-27T02:01:26.042Z,0
2018-05-27T02:02:06.562Z,0
2018-05-27T02:02:47.078Z,0
2018-05-27T02:03:27.592Z,0
2018-05-27T02:04:08.144Z,0
2018-05-27T02:04:48.584Z,0
2018-05-27T02:05:29.070Z,0
2018-05-27T02:06:09.581Z,0
2018-05-27T02:06:50.028Z,0
2018-05-27T02:07:30.542Z,0
2018-05-27T02:08:11.047Z,0
2018-05-27T02:08:51.584Z,0
2018-05-27T02:09:32.048Z,0
2018-05-27T02:10:12.584Z,0
2018-05-27T02:10:53.118Z,0
2018-05-27T02:11:33.636Z,0
2018-05-27T02:12:14.118Z,0
2018-05-27T02:12:54.631Z,0
2018-05-27T02:13:35.129Z,0
2018-05-27T02:14:15.658Z,0
2018-05-27T02:14:56.178Z,0
2018-05-27T02:15:36.709Z,0
2018-05-27T02:16:17.238Z,0
2018-05-27T02:16:57.753Z,0
2018-05-27T02:17:38.284Z,0
2018-05-27T02:18:18.820Z,0
2018-05-27T02:18:59.347Z,0
2018-05-27T02:19:39.885Z,0
2018-05-27T02:20:20.542Z,0
2018-05-27T02:21:01.059Z,0
2018-05-27T02:21:41.591Z,0
2018-05-27T02:22:22.141Z,0
2018-05-27T02:23:02.669Z,0
2018-05-27T02:23:43.192Z,0
2018-05-27T02:24:23.733Z,0
2018-05-27T02:25:04.251Z,0
2018-05-27T02:25:44.778Z,0
2018-05-27T02:26:25.303Z,0
2018-05-27T02:27:05.803Z,0
2018-05-27T02:27:46.310Z,0
2018-05-27T02:28:26.848Z,0
2018-05-27T02:29:07.366Z,0
2018-05-27T02:29:47.884Z,0
2018-05-27T02:30:28.417Z,0
2018-05-27T02:31:08.939Z,0
2018-05-27T02:31:49.464Z,0
2018-05-27T02:32:30.030Z,0
2018-05-27T02:33:10.514Z,0
2018-05-27T02:33:51.030Z,0
2018-05-27T02:34:31.554Z,0
2018-05-27T02:35:12.082Z,0
2018-05-27T02:35:52.628Z,0
2018-05-27T02:36:33.148Z,0
2018-05-27T02:37:13.664Z,0
2018-05-27T02:37:54.189Z,0
2018-05-27T02:38:34.710Z,0
2018-05-27T02:39:15.242Z,0
2018-05-27T02:39:55.752Z,0
2018-05-27T02:40:36.402Z,0
2018-05-27T02:41:16.936Z,0
2018-05-27T02:41:57.461Z,0
2018-05-27T02:42:37.964Z,0
2018-05-27T02:43:18.487Z,0
2018-05-27T02:43:59.093Z,0
2018-05-27T02:44:39.617Z,0
2018-05-27T02:45:20.143Z,0
2018-05-27T02:46:00.663Z,0
2018-05-27T02:46:41.196Z,0
2018-05-27T02:47:21.708Z,0
2018-05-27T02:48:02.234Z,0
2018-05-27T02:48:42.764Z,0
2018-05-27T02:49:23.278Z,0
2018-05-27T02:50:03.812Z,0
2018-05-27T02:50:44.327Z,0
2018-05-27T02:51:24.848Z,0
2018-05-27T02:52:05.405Z,0
2018-05-27T02:52:45.927Z,0
2018-05-27T02:53:26.453Z,0
2018-05-27T02:54:06.984Z,0
2018-05-27T02:54:47.512Z,0
2018-05-27T02:55:28.054Z,0
2018-05-27T02:56:08.565Z,0
2018-05-27T02:56:49.079Z,4
2018-05-27T02:57:29.591Z,4
2018-05-27T02:58:10.118Z,4
2018-05-27T02:58:50.642Z,0
2018-05-27T02:59:31.167Z,0
2018-05-27T03:00:11.696Z,4
2018-05-27T03:00:52.220Z,4
2018-05-27T03:01:32.730Z,4
2018-05-27T03:02:13.266Z,4
2018-05-27T03:02:53.774Z,4
2018-05-27T03:03:34.296Z,4
2018-05-27T03:04:14.853Z,4
2018-05-27T03:04:55.453Z,4
2018-05-27T03:05:35.996Z,8
2018-05-27T03:06:16.500Z,8
2018-05-27T03:06:57.027Z,8
2018-05-27T03:07:37.536Z,8
2018-05-27T03:08:18.056Z,12
2018-05-27T03:08:58.585Z,8
2018-05-27T03:09:39.116Z,8
2018-05-27T03:10:19.637Z,12
2018-05-27T03:11:00.168Z,12
2018-05-27T03:11:40.655Z,12
2018-05-27T03:12:21.163Z,16
2018-05-27T03:13:01.698Z,16
2018-05-27T03:13:42.199Z,20
2018-05-27T03:14:22.656Z,24
2018-05-27T03:15:03.162Z,24
2018-05-27T03:15:43.682Z,28
2018-05-27T03:16:24.161Z,28
2018-05-27T03:17:04.683Z,28
2018-05-27T03:17:45.173Z,32
2018-05-27T03:18:25.690Z,36
2018-05-27T03:19:06.209Z,40
2018-05-27T03:19:46.726Z,40
2018-05-27T03:20:27.240Z,48
2018-05-27T03:21:07.770Z,52
2018-05-27T03:21:48.298Z,56
2018-05-27T03:22:28.822Z,56
2018-05-27T03:23:09.348Z,64
2018-05-27T03:23:49.876Z,64
2018-05-27T03:24:30.405Z,72
2018-05-27T03:25:10.930Z,76
2018-05-27T03:25:51.460Z,80
2018-05-27T03:26:31.980Z,84
2018-05-27T03:27:12.493Z,92
2018-05-27T03:27:53.013Z,96
2018-05-27T03:28:33.522Z,104
2018-05-27T03:29:14.045Z,112
2018-05-27T03:29:54.635Z,116
2018-05-27T03:30:35.143Z,124
2018-05-27T03:31:15.656Z,136
2018-05-27T03:31:56.192Z,144
2018-05-27T03:32:36.718Z,156
2018-05-27T03:33:17.240Z,164
2018-05-27T03:33:57.739Z,172
2018-05-27T03:34:38.265Z,180
2018-05-27T03:35:18.789Z,192
2018-05-27T03:35:59.507Z,200
2018-05-27T03:36:40.030Z,212
2018-05-27T03:37:20.522Z,220
2018-05-27T03:38:01.073Z,236
2018-05-27T03:38:41.580Z,248
2018-05-27T03:39:22.109Z,264
2018-05-27T03:40:02.645Z,280
2018-05-27T03:40:43.183Z,296
2018-05-27T03:41:23.701Z,312
2018-05-27T03:42:04.214Z,332
2018-05-27T03:42:44.704Z,348
2018-05-27T03:43:25.220Z,360
2018-05-27T03:44:05.744Z,376
2018-05-27T03:44:46.263Z,396
2018-05-27T03:45:26.795Z,408
2018-05-27T03:46:07.315Z,424
2018-05-27T03:46:47.830Z,440
2018-05-27T03:47:28.357Z,456
2018-05-27T03:48:08.885Z,472
2018-05-27T03:48:49.398Z,488
2018-05-27T03:49:29.928Z,504
2018-05-27T03:50:10.455Z,524
2018-05-27T03:50:50.987Z,540
2018-05-27T03:51:31.503Z,556
2018-05-27T03:52:12.048Z,580
2018-05-27T03:52:52.554Z,600
2018-05-27T03:53:33.077Z,616
2018-05-27T03:54:13.564Z,632
2018-05-27T03:54:54.089Z,652
2018-05-27T03:55:34.584Z,672
2018-05-27T03:56:15.328Z,696
2018-05-27T03:56:55.832Z,716
2018-05-27T03:57:36.327Z,740
2018-05-27T03:58:16.834Z,760
2018-05-27T03:58:57.330Z,784
2018-05-27T03:59:37.826Z,808
2018-05-27T04:00:18.337Z,828
2018-05-27T04:00:58.834Z,848
2018-05-27T04:01:39.336Z,868
2018-05-27T04:02:19.874Z,892
2018-05-27T04:03:00.398Z,916
2018-05-27T04:03:40.909Z,936
2018-05-27T04:04:21.459Z,956
2018-05-27T04:05:01.947Z,976
2018-05-27T04:05:42.472Z,996
2018-05-27T04:06:23.001Z,1016
2018-05-27T04:07:03.504Z,1036
2018-05-27T04:07:44.030Z,1056
2018-05-27T04:08:24.550Z,1072
2018-05-27T04:09:05.098Z,1092
2018-05-27T04:09:45.609Z,1112
2018-05-27T04:10:26.132Z,1128
2018-05-27T04:11:06.651Z,1144
2018-05-27T04:11:47.267Z,1160
2018-05-27T04:12:27.810Z,1176
2018-05-27T04:13:08.345Z,1188
2018-05-27T04:13:48.857Z,1208
2018-05-27T04:14:29.380Z,1228
2018-05-27T04:15:09.897Z,1244
2018-05-27T04:15:50.444Z,1264
2018-05-27T04:16:30.973Z,1280
2018-05-27T04:17:11.487Z,1304
2018-05-27T04:17:52.003Z,1332
2018-05-27T04:18:32.515Z,1360
2018-05-27T04:19:13.044Z,1392
2018-05-27T04:19:53.579Z,1424
2018-05-27T04:20:34.095Z,1452
2018-05-27T04:21:14.614Z,1480
2018-05-27T04:21:55.121Z,1512
2018-05-27T04:22:35.644Z,1548
2018-05-27T04:23:16.163Z,1580
2018-05-27T04:23:56.663Z,1616
2018-05-27T04:24:37.189Z,1652
2018-05-27T04:25:17.712Z,1696
2018-05-27T04:25:58.225Z,1732
2018-05-27T04:26:38.744Z,1760
2018-05-27T04:27:19.273Z,1792
2018-05-27T04:27:59.798Z,1824
2018-05-27T04:28:40.316Z,1840
2018-05-27T04:29:20.953Z,1864
2018-05-27T04:30:01.471Z,1900
2018-05-27T04:30:41.976Z,1940
2018-05-27T04:31:22.497Z,1988
2018-05-27T04:32:03.030Z,2036
2018-05-27T04:32:43.559Z,2088
2018-05-27T04:33:24.076Z,2148
2018-05-27T04:34:04.603Z,2208
2018-05-27T04:34:45.121Z,2272
2018-05-27T04:35:25.669Z,2320
2018-05-27T04:36:06.197Z,2368
2018-05-27T04:36:46.717Z,2400
2018-05-27T04:37:27.240Z,2432
2018-05-27T04:38:07.747Z,2504
2018-05-27T04:38:48.269Z,2596
2018-05-27T04:39:28.798Z,2636
2018-05-27T04:40:09.324Z,2684
2018-05-27T04:40:49.845Z,2728
2018-05-27T04:41:30.363Z,2780
2018-05-27T04:42:10.896Z,2812
2018-05-27T04:42:51.419Z,2804
2018-05-27T04:43:31.922Z,2804
2018-05-27T04:44:12.449Z,2828
2018-05-27T04:44:52.968Z,2868
2018-05-27T04:45:33.474Z,2896
2018-05-27T04:46:14.005Z,2928
2018-05-27T04:46:54.526Z,2988
2018-05-27T04:47:35.036Z,3140
2018-05-27T04:48:15.631Z,3260
2018-05-27T04:48:56.146Z,3292
2018-05-27T04:49:36.660Z,3440
2018-05-27T04:50:17.183Z,3516
2018-05-27T04:50:57.703Z,3500
2018-05-27T04:51:38.215Z,3436
2018-05-27T04:52:18.721Z,3312
2018-05-27T04:52:59.243Z,3240
2018-05-27T04:53:39.788Z,3248
2018-05-27T04:54:20.316Z,3324
2018-05-27T04:55:00.826Z,3452
2018-05-27T04:55:41.366Z,3600
2018-05-27T04:56:21.873Z,3608
2018-05-27T04:57:02.387Z,3500
2018-05-27T04:57:42.919Z,3416
2018-05-27T04:58:23.428Z,3396
2018-05-27T04:59:03.975Z,3440
2018-05-27T04:59:44.469Z,3472
2018-05-27T05:00:24.979Z,3544
2018-05-27T05:01:05.501Z,3516
2018-05-27T05:01:46.045Z,3536
2018-05-27T05:02:26.569Z,3564
2018-05-27T05:03:07.083Z,3696
2018-05-27T05:03:47.605Z,4504
2018-05-27T05:04:28.105Z,6112
2018-05-27T05:05:08.618Z,6732
2018-05-27T05:05:49.145Z,6264
2018-05-27T05:06:29.680Z,4592
2018-05-27T05:07:10.203Z,3968
2018-05-27T05:07:50.722Z,3800
2018-05-27T05:08:31.239Z,3796
2018-05-27T05:09:11.754Z,3844
2018-05-27T05:09:52.246Z,3784
2018-05-27T05:10:32.765Z,3744
2018-05-27T05:11:13.274Z,3808
2018-05-27T05:11:53.739Z,3864
2018-05-27T05:12:34.304Z,3956
2018-05-27T05:13:14.718Z,3900
2018-05-27T05:13:55.338Z,3828
2018-05-27T05:14:35.820Z,3748
2018-05-27T05:15:16.328Z,3732
2018-05-27T05:15:56.819Z,3696
2018-05-27T05:16:37.353Z,3712
2018-05-27T05:17:17.871Z,3740
2018-05-27T05:17:58.326Z,3716
2018-05-27T05:18:38.811Z,3684
2018-05-27T05:19:19.311Z,3728
2018-05-27T05:19:59.821Z,3772
2018-05-27T05:20:40.329Z,3836
2018-05-27T05:21:20.847Z,4020
2018-05-27T05:22:01.415Z,4084
2018-05-27T05:22:41.905Z,4064
2018-05-27T05:23:22.438Z,3844
2018-05-27T05:24:02.965Z,3868
2018-05-27T05:24:43.492Z,3896
2018-05-27T05:25:24.045Z,3940
2018-05-27T05:26:04.567Z,3992
2018-05-27T05:26:45.093Z,4036
2018-05-27T05:27:25.629Z,4080
2018-05-27T05:28:06.176Z,4140
2018-05-27T05:28:46.707Z,4204
2018-05-27T05:29:27.226Z,4276
2018-05-27T05:30:07.757Z,4320
2018-05-27T05:30:48.333Z,4392
2018-05-27T05:31:28.894Z,4444
2018-05-27T05:32:09.419Z,4496
2018-05-27T05:32:49.871Z,4544
2018-05-27T05:33:30.428Z,4608
2018-05-27T05:34:10.862Z,4672
2018-05-27T05:34:51.335Z,4708
2018-05-27T05:35:31.851Z,4772
2018-05-27T05:36:12.373Z,4832
2018-05-27T05:36:52.907Z,4868
2018-05-27T05:37:33.423Z,4900
2018-05-27T05:38:13.970Z,4972
2018-05-27T05:38:54.514Z,5048
2018-05-27T05:39:35.068Z,5128
2018-05-27T05:40:15.609Z,5188
2018-05-27T05:40:56.124Z,5228
2018-05-27T05:41:36.736Z,5272
2018-05-27T05:42:17.159Z,5288
2018-05-27T05:42:57.622Z,5336
2018-05-27T05:43:38.169Z,5356
2018-05-27T05:44:18.624Z,5344
2018-05-27T05:44:59.126Z,5348
2018-05-27T05:45:39.653Z,5352
2018-05-27T05:46:20.152Z,5296
2018-05-27T05:47:00.683Z,5228
2018-05-27T05:47:41.157Z,5324
2018-05-27T05:48:21.662Z,5536
2018-05-27T05:49:02.208Z,5796
2018-05-27T05:49:42.687Z,6220
2018-05-27T05:50:23.186Z,6640
2018-05-27T05:51:03.659Z,6708
2018-05-27T05:51:44.173Z,6776
2018-05-27T05:52:24.634Z,7020
2018-05-27T05:53:05.094Z,7296
2018-05-27T05:53:45.614Z,7644
2018-05-27T05:54:26.130Z,7976
2018-05-27T05:55:06.659Z,8204
2018-05-27T05:55:47.150Z,8384
2018-05-27T05:56:27.649Z,8396
2018-05-27T05:57:08.197Z,8196
2018-05-27T05:57:48.662Z,8132
2018-05-27T05:58:29.164Z,7888
2018-05-27T05:59:09.645Z,7356
2018-05-27T05:59:50.157Z,7504
2018-05-27T06:00:30.697Z,8012
2018-05-27T06:01:11.226Z,7948
2018-05-27T06:01:51.689Z,8256
2018-05-27T06:02:32.204Z,8540
2018-05-27T06:03:12.791Z,8536
2018-05-27T06:03:53.181Z,8404
2018-05-27T06:04:33.694Z,8228
2018-05-27T06:05:14.200Z,7788
2018-05-27T06:05:54.678Z,7388
2018-05-27T06:06:35.193Z,7348
2018-05-27T06:07:15.725Z,7624
2018-05-27T06:07:56.349Z,7596
2018-05-27T06:08:36.902Z,7696
2018-05-27T06:09:17.398Z,7676
2018-05-27T06:09:58.217Z,7764
2018-05-27T06:10:38.819Z,7704
2018-05-27T06:11:19.303Z,7992
2018-05-27T06:11:59.801Z,7916
2018-05-27T06:12:40.345Z,7692
2018-05-27T06:13:20.809Z,7396
2018-05-27T06:14:01.650Z,7400
2018-05-27T06:14:42.134Z,7216
2018-05-27T06:15:23.143Z,6920
2018-05-27T06:16:03.683Z,6904
2018-05-27T06:16:44.180Z,6776
2018-05-27T06:17:24.736Z,6756
2018-05-27T06:18:05.162Z,6788
2018-05-27T06:18:45.675Z,6960
2018-05-27T06:19:26.145Z,7068
2018-05-27T06:20:06.698Z,6932
2018-05-27T06:20:47.127Z,6996
2018-05-27T06:21:27.662Z,7396
2018-05-27T06:22:08.138Z,7600
2018-05-27T06:22:48.660Z,7580
2018-05-27T06:23:29.181Z,7784
2018-05-27T06:24:09.708Z,7868
2018-05-27T06:24:50.219Z,7836
2018-05-27T06:25:30.754Z,7864
2018-05-27T06:26:11.185Z,7828
2018-05-27T06:26:51.698Z,7716
2018-05-27T06:27:32.212Z,7640
2018-05-27T06:28:12.822Z,7724
2018-05-27T06:28:53.230Z,7880
2018-05-27T06:29:33.804Z,8024
2018-05-27T06:30:14.403Z,8024
2018-05-27T06:30:54.960Z,7784
2018-05-27T06:31:35.431Z,7680
2018-05-27T06:32:15.914Z,8076
2018-05-27T06:32:56.509Z,8108
2018-05-27T06:33:36.976Z,8100
2018-05-27T06:34:17.523Z,7980
2018-05-27T06:34:58.027Z,7412
2018-05-27T06:35:38.555Z,7244
2018-05-27T06:36:19.103Z,7024
2018-05-27T06:36:59.696Z,7932
2018-05-27T06:37:40.541Z,7912
2018-05-27T06:38:21.061Z,7920
2018-05-27T06:39:01.633Z,7828
2018-05-27T06:39:42.092Z,7852
2018-05-27T06:40:22.589Z,7864
2018-05-27T06:41:03.297Z,7976
2018-05-27T06:41:43.883Z,7980
2018-05-27T06:42:24.583Z,8000
2018-05-27T06:43:05.321Z,8096
2018-05-27T06:43:46.044Z,8180
2018-05-27T06:44:26.773Z,8184
2018-05-27T06:45:07.288Z,8216
2018-05-27T06:45:47.819Z,8260
2018-05-27T06:46:29.158Z,8284
2018-05-27T06:47:09.988Z,8296
2018-05-27T06:47:50.812Z,8288
2018-05-27T06:48:32.741Z,8288
2018-05-27T06:49:14.088Z,8020
2018-05-27T06:49:54.124Z,7884
2018-05-27T06:50:35.161Z,7728
2018-05-27T06:51:16.003Z,7812
2018-05-27T06:52:40.564Z,7736
2018-05-27T06:53:23.983Z,7660
2018-05-27T06:54:04.191Z,7516
2018-05-27T06:54:44.670Z,7512
2018-05-27T06:55:25.237Z,7532
2018-05-27T06:56:05.964Z,7584
2018-05-27T06:56:46.631Z,7716
2018-05-27T06:57:27.054Z,7756
2018-05-27T06:58:07.518Z,7836
2018-05-27T06:58:48.121Z,7600
2018-05-27T06:59:28.782Z,7520
2018-05-27T07:00:10.228Z,7492
2018-05-27T07:00:50.791Z,7444
2018-05-27T07:01:31.883Z,7484
2018-05-27T07:02:13.606Z,7492
2018-05-27T07:02:55.171Z,7448
2018-05-27T07:03:35.481Z,7448
2018-05-27T07:04:16.040Z,7432
2018-05-27T07:04:56.816Z,7328
2018-05-27T07:05:37.516Z,7072
2018-05-27T07:06:18.088Z,7072
2018-05-27T07:07:00.521Z,7212
2018-05-27T07:07:41.186Z,7224
2018-05-27T07:08:21.909Z,7300
2018-05-27T07:09:05.017Z,7248
2018-05-27T07:09:46.399Z,7280
2018-05-27T07:10:26.196Z,7104
2018-05-27T07:11:06.678Z,7164
2018-05-27T07:11:47.181Z,7156
2018-05-27T07:12:27.753Z,7128
2018-05-27T07:13:08.470Z,7092
2018-05-27T07:13:49.159Z,7096
2018-05-27T07:14:29.656Z,7064
2018-05-27T07:15:14.231Z,6972
2018-05-27T07:16:39.974Z,6900
2018-05-27T07:21:28.960Z,6824
2018-05-27T07:22:09.483Z,6852
2018-05-27T07:22:51.407Z,6876
2018-05-27T07:23:32.486Z,6936
2018-05-27T07:24:13.304Z,6904
2018-05-27T07:24:53.682Z,7004
2018-05-27T07:25:35.677Z,7140
2018-05-27T07:26:16.760Z,7216
2018-05-27T07:26:57.139Z,7268
2018-05-27T07:27:38.235Z,7444
2018-05-27T07:28:19.179Z,7644
2018-05-27T07:28:59.515Z,8032
2018-05-27T07:29:39.945Z,8452
2018-05-27T07:30:20.476Z,9028
2018-05-27T07:31:00.942Z,9772
2018-05-27T07:31:41.509Z,10540
2018-05-27T07:32:21.992Z,11196
2018-05-27T07:33:02.571Z,11728
2018-05-27T07:33:43.050Z,12096
2018-05-27T07:34:23.552Z,12328
2018-05-27T07:35:04.898Z,12464
2018-05-27T07:35:46.643Z,12560
2018-05-27T07:36:27.694Z,12624
2018-05-27T07:37:08.311Z,12660
2018-05-27T07:37:49.834Z,12680
2018-05-27T07:38:30.880Z,12720
2018-05-27T07:39:11.388Z,12708
2018-05-27T07:39:51.894Z,12560
2018-05-27T07:40:34.133Z,11800
2018-05-27T07:41:15.370Z,10952
2018-05-27T07:42:46.778Z,9456
2018-05-27T07:43:29.922Z,9072
2018-05-27T07:44:11.196Z,8752
2018-05-27T07:46:32.040Z,8032
2018-05-27T07:47:27.290Z,7840
2018-05-27T07:48:15.514Z,7664
2018-05-27T07:48:56.387Z,7560
2018-05-27T07:49:37.809Z,7492
2018-05-27T07:50:23.821Z,7504
2018-05-27T07:51:04.501Z,7464
2018-05-27T07:51:45.064Z,7508
2018-05-27T07:52:27.891Z,7508
2018-05-27T07:53:09.338Z,7560
2018-05-27T07:53:49.928Z,7640
2018-05-27T07:54:30.624Z,7660
2018-05-27T07:55:11.035Z,7696
2018-05-27T07:55:51.651Z,7740
2018-05-27T07:58:11.781Z,7980
2018-05-27T07:58:52.560Z,8028
2018-05-27T07:59:34.292Z,8024
2018-05-27T08:00:14.788Z,9084
2018-05-27T08:00:55.333Z,9772
2018-05-27T08:01:36.630Z,9168
2018-05-27T08:02:16.779Z,9024
2018-05-27T08:02:58.406Z,8024
2018-05-27T08:03:38.697Z,7832
2018-05-27T08:05:25.517Z,7860
2018-05-27T08:06:06.020Z,7872
2018-05-27T08:06:46.555Z,7844
2018-05-27T08:07:27.056Z,7836
2018-05-27T08:08:07.568Z,7852
2018-05-27T08:08:48.143Z,7952
2018-05-27T08:11:22.383Z,9392
2018-05-27T08:12:02.975Z,9956
2018-05-27T08:12:44.823Z,9060
2018-05-27T08:13:25.742Z,8460
2018-05-27T08:14:06.202Z,9112
2018-05-27T08:14:46.734Z,9624
2018-05-27T08:15:28.720Z,9204
2018-05-27T08:16:10.014Z,8900
2018-05-27T08:16:50.670Z,9332
2018-05-27T08:17:31.187Z,9428
2018-05-27T08:18:25.902Z,9332
2018-05-27T08:19:06.325Z,9156
2018-05-27T08:19:46.873Z,9028
2018-05-27T08:20:27.317Z,8920
2018-05-27T08:21:07.829Z,8788
2018-05-27T08:21:48.281Z,8652
2018-05-27T08:22:29.584Z,8544
2018-05-27T08:23:10.071Z,8444
2018-05-27T08:23:50.589Z,8332
2018-05-27T08:24:31.059Z,8216
2018-05-27T08:25:11.616Z,8172
2018-05-27T08:25:52.074Z,8096
2018-05-27T08:26:32.578Z,8000
2018-05-27T08:27:13.111Z,7908
2018-05-27T08:27:53.570Z,7848
2018-05-27T08:28:34.093Z,7804
2018-05-27T08:29:14.609Z,7768
2018-05-27T08:29:55.159Z,7756
2018-05-27T08:30:35.633Z,7748
2018-05-27T08:31:16.169Z,7660
2018-05-27T08:31:56.691Z,7280
2018-05-27T08:32:37.158Z,7188
2018-05-27T08:33:17.669Z,7796
2018-05-27T08:33:58.173Z,7820
2018-05-27T08:34:38.716Z,7812
2018-05-27T08:35:19.345Z,7868
2018-05-27T08:35:59.844Z,7948
2018-05-27T08:36:40.378Z,7944
2018-05-27T08:37:20.845Z,7968
2018-05-27T08:38:01.363Z,7968
2018-05-27T08:38:41.874Z,7972
2018-05-27T08:39:22.618Z,7940
2018-05-27T08:40:03.274Z,7924
2018-05-27T08:40:43.679Z,7936
2018-05-27T08:41:24.230Z,7896
2018-05-27T08:42:04.776Z,7864
2018-05-27T08:42:45.306Z,7848
2018-05-27T08:43:25.825Z,7832
2018-05-27T08:44:06.323Z,7796
2018-05-27T08:44:46.885Z,7776
2018-05-27T08:45:27.356Z,7688
2018-05-27T08:46:07.842Z,7636
2018-05-27T08:46:48.306Z,7564
2018-05-27T08:47:28.825Z,7576
2018-05-27T08:48:09.344Z,7640
2018-05-27T08:48:49.812Z,7376
2018-05-27T08:49:30.317Z,7568
2018-05-27T08:50:10.766Z,7692
2018-05-27T08:50:51.287Z,7680
2018-05-27T08:51:31.800Z,7748
2018-05-27T08:52:12.296Z,7708
2018-05-27T08:52:52.785Z,7680
2018-05-27T08:53:33.354Z,7504
2018-05-27T08:54:13.837Z,7448
2018-05-27T08:54:54.521Z,7320
2018-05-27T08:55:35.042Z,7360
2018-05-27T08:56:15.539Z,7156
2018-05-27T08:56:56.035Z,7164
2018-05-27T08:57:36.553Z,7384
2018-05-27T08:58:17.103Z,7692
2018-05-27T08:58:57.575Z,7792
2018-05-27T08:59:38.045Z,7816
2018-05-27T09:00:18.551Z,7800
2018-05-27T09:00:59.106Z,7828
2018-05-27T09:01:39.631Z,7868
2018-05-27T09:02:20.131Z,7884
2018-05-27T09:03:00.666Z,7868
2018-05-27T09:03:41.227Z,7880
2018-05-27T09:04:21.804Z,7904
2018-05-27T09:05:02.310Z,7876
2018-05-27T09:05:42.844Z,7848
2018-05-27T09:06:23.336Z,7816
2018-05-27T09:07:03.828Z,7784
2018-05-27T09:07:44.313Z,7760
2018-05-27T09:08:24.846Z,7732
2018-05-27T09:09:05.380Z,7716
2018-05-27T09:09:45.855Z,7704
2018-05-27T09:10:26.346Z,7704
2018-05-27T09:11:06.898Z,7720
2018-05-27T09:11:47.379Z,7724
2018-05-27T09:12:27.889Z,7716
2018-05-27T09:13:08.355Z,7696
2018-05-27T09:13:48.892Z,7656
2018-05-27T09:14:29.408Z,7596
2018-05-27T09:15:09.917Z,7532
2018-05-27T09:15:50.409Z,7456
2018-05-27T09:16:30.961Z,7316
2018-05-27T09:17:11.494Z,7160
2018-05-27T09:17:51.971Z,7016
2018-05-27T09:18:32.438Z,6876
2018-05-27T09:19:12.947Z,6740
2018-05-27T09:19:53.441Z,6628
2018-05-27T09:20:33.946Z,6612
2018-05-27T09:21:14.459Z,6680
2018-05-27T09:21:55.107Z,6636
2018-05-27T09:22:35.850Z,6640
2018-05-27T09:23:16.355Z,6656
2018-05-27T09:23:56.827Z,6824
2018-05-27T09:24:37.330Z,6816
2018-05-27T09:25:17.931Z,6856
2018-05-27T09:25:58.449Z,6832
2018-05-27T09:26:38.946Z,6876
2018-05-27T09:27:19.427Z,6912
2018-05-27T09:28:00.326Z,6936
2018-05-27T09:28:40.465Z,6912
2018-05-27T09:29:21.733Z,7072
2018-05-27T09:30:02.345Z,6780
2018-05-27T09:30:42.737Z,6608
2018-05-27T09:31:23.280Z,6488
2018-05-27T09:32:03.803Z,6392
2018-05-27T09:32:44.288Z,6192
2018-05-27T09:33:24.801Z,6036
2018-05-27T09:34:05.590Z,5932
2018-05-27T09:34:46.093Z,5908